QTR994 OMDB-YPPH
Flight info
| Callsign | QTR994 |
|---|---|
| Flight time | N/A |
| Altitude | 35000 |
| Route | ANVIX L223 TARDI N629 GIDAN P570 KITAL L894 BOLUR/N0497F370 L894 BIBGO DCT LAVOX DCT KADAP/N0489F390 DCT 0500S08730E DCT BEBIM DCT 15S100E 18S105E/N0485F410 DCT WONSA DCT CAR B469 TOPIR/N0490F400 L514 AVPAL Q38 JULIM |
| Aircraft | A359/H-SDE2E3GHIJ3J4J5LM1ORWXY/LB1D1 |
Departure
| Time | 2026-05-07 02:40 |
|---|---|
| Airport | Dubai International Airport (OMDB) |
Arrival
| Time | N/A |
|---|---|
| Airport | Perth International Airport (YPPH) |
| Time | Latitude | Longitude | Altitude | Speed | Heading |
|---|---|---|---|---|---|
| 2026-05-07 02:18 | 25.25247 | 55.35256 | 19 ft | 0 kts | 33° |
| 2026-05-07 02:31 | 25.25242 | 55.35253 | 19 ft | 2 kts | 32° |
| 2026-05-07 02:31 | 25.25228 | 55.35244 | 24 ft | 2 kts | 25° |
| 2026-05-07 02:31 | 25.25212 | 55.35237 | 22 ft | 2 kts | 16° |
| 2026-05-07 02:31 | 25.25200 | 55.35234 | 24 ft | 2 kts | 3° |
| 2026-05-07 02:32 | 25.25195 | 55.35234 | 19 ft | 0 kts | 355° |
| 2026-05-07 02:32 | 25.25186 | 55.35235 | 10 ft | 2 kts | 343° |
| 2026-05-07 02:32 | 25.25174 | 55.35241 | 27 ft | 2 kts | 320° |
| 2026-05-07 02:32 | 25.25169 | 55.35245 | 24 ft | 0 kts | 313° |
| 2026-05-07 02:33 | 25.25168 | 55.35247 | 22 ft | 2 kts | 310° |
| 2026-05-07 02:33 | 25.25162 | 55.35254 | 23 ft | 0 kts | 308° |
| 2026-05-07 02:34 | 25.25161 | 55.35255 | 23 ft | 0 kts | 308° |
| 2026-05-07 02:34 | 25.25165 | 55.35250 | 22 ft | 3 kts | 308° |
| 2026-05-07 02:35 | 25.25178 | 55.35232 | 11 ft | 15 kts | 308° |
| 2026-05-07 02:35 | 25.25274 | 55.35066 | 25 ft | 34 kts | 298° |
| 2026-05-07 02:35 | 25.25446 | 55.34902 | 28 ft | 35 kts | 13° |
| 2026-05-07 02:35 | 25.25666 | 55.35039 | 29 ft | 38 kts | 30° |
| 2026-05-07 02:36 | 25.25767 | 55.35220 | 12 ft | 27 kts | 15° |
| 2026-05-07 02:36 | 25.25936 | 55.35337 | 11 ft | 32 kts | 44° |
| 2026-05-07 02:36 | 25.25953 | 55.35591 | 10 ft | 41 kts | 117° |
| 2026-05-07 02:36 | 25.25847 | 55.35781 | 8 ft | 47 kts | 123° |
| 2026-05-07 02:37 | 25.25681 | 55.35896 | 5 ft | 28 kts | 197° |
| 2026-05-07 02:37 | 25.25551 | 55.35972 | 7 ft | 19 kts | 117° |
| 2026-05-07 02:37 | 25.25476 | 55.36098 | 8 ft | 29 kts | 122° |
| 2026-05-07 02:37 | 25.25420 | 55.36196 | 6 ft | 0 kts | 122° |
| 2026-05-07 02:38 | 25.25396 | 55.36239 | 6 ft | 27 kts | 121° |
| 2026-05-07 02:38 | 25.25193 | 55.36605 | 9 ft | 83 kts | 120° |
| 2026-05-07 02:38 | 25.24949 | 55.37040 | 21 ft | 114 kts | 123° |
| 2026-05-07 02:38 | 25.24456 | 55.37931 | 28 ft | 156 kts | 121° |
| 2026-05-07 02:39 | 25.23817 | 55.39065 | 120 ft | 186 kts | 124° |
| 2026-05-07 02:39 | 25.23143 | 55.40259 | 596 ft | 183 kts | 122° |
| 2026-05-07 02:39 | 25.22452 | 55.41542 | 591 ft | 209 kts | 121° |
| 2026-05-07 02:39 | 25.21680 | 55.42993 | 625 ft | 226 kts | 121° |
| 2026-05-07 02:40 | 25.20864 | 55.44554 | 791 ft | 243 kts | 121° |
| 2026-05-07 02:40 | 25.19982 | 55.46116 | 1394 ft | 235 kts | 127° |
| 2026-05-07 02:40 | 25.19086 | 55.47582 | 1954 ft | 233 kts | 128° |
| 2026-05-07 02:40 | 25.18183 | 55.49071 | 2399 ft | 235 kts | 125° |
| 2026-05-07 02:41 | 25.17338 | 55.50618 | 2887 ft | 236 kts | 123° |
| 2026-05-07 02:41 | 25.16495 | 55.52173 | 3358 ft | 237 kts | 123° |
| 2026-05-07 02:41 | 25.15602 | 55.53739 | 3711 ft | 244 kts | 126° |
| 2026-05-07 02:41 | 25.14682 | 55.55338 | 4121 ft | 248 kts | 123° |
| 2026-05-07 02:42 | 25.13770 | 55.56972 | 4587 ft | 252 kts | 122° |
| 2026-05-07 02:42 | 25.12843 | 55.58631 | 4999 ft | 255 kts | 122° |
| 2026-05-07 02:42 | 25.11907 | 55.60300 | 5433 ft | 257 kts | 123° |
| 2026-05-07 02:42 | 25.10832 | 55.61883 | 5854 ft | 260 kts | 134° |
| 2026-05-07 02:43 | 25.09546 | 55.63356 | 6074 ft | 273 kts | 136° |
| 2026-05-07 02:43 | 25.08184 | 55.64846 | 6299 ft | 285 kts | 136° |
| 2026-05-07 02:43 | 25.06745 | 55.66422 | 6680 ft | 289 kts | 136° |
| 2026-05-07 02:43 | 25.05314 | 55.67996 | 7168 ft | 291 kts | 135° |
| 2026-05-07 02:44 | 25.03898 | 55.69559 | 7646 ft | 293 kts | 134° |
| 2026-05-07 02:44 | 25.02457 | 55.71162 | 8167 ft | 294 kts | 133° |
| 2026-05-07 02:44 | 25.01019 | 55.72758 | 8738 ft | 293 kts | 133° |
| 2026-05-07 02:44 | 24.99583 | 55.74353 | 9287 ft | 293 kts | 133° |
| 2026-05-07 02:45 | 24.98135 | 55.75946 | 9844 ft | 294 kts | 133° |
| 2026-05-07 02:45 | 24.96680 | 55.77544 | 10278 ft | 299 kts | 133° |
| 2026-05-07 02:45 | 24.95171 | 55.79192 | 10525 ft | 311 kts | 134° |
| 2026-05-07 02:45 | 24.93363 | 55.80590 | 10733 ft | 326 kts | 151° |
| 2026-05-07 02:46 | 24.91255 | 55.81637 | 10976 ft | 339 kts | 155° |
| 2026-05-07 02:46 | 24.89048 | 55.82662 | 11198 ft | 350 kts | 155° |
| 2026-05-07 02:46 | 24.86774 | 55.83723 | 11412 ft | 360 kts | 154° |
| 2026-05-07 02:46 | 24.84551 | 55.85045 | 11605 ft | 367 kts | 141° |
| 2026-05-07 02:47 | 24.82730 | 55.87036 | 11812 ft | 372 kts | 126° |
| 2026-05-07 02:47 | 24.81152 | 55.89330 | 11993 ft | 380 kts | 124° |
| 2026-05-07 02:47 | 24.79569 | 55.91699 | 12263 ft | 387 kts | 124° |
| 2026-05-07 02:47 | 24.77893 | 55.94032 | 12644 ft | 390 kts | 129° |
| 2026-05-07 02:48 | 24.76020 | 55.96208 | 13068 ft | 392 kts | 133° |
| 2026-05-07 02:48 | 24.74043 | 55.98285 | 13512 ft | 393 kts | 135° |
| 2026-05-07 02:48 | 24.72053 | 56.00291 | 13879 ft | 395 kts | 135° |
| 2026-05-07 02:48 | 24.70012 | 56.02326 | 14206 ft | 398 kts | 136° |
| 2026-05-07 02:49 | 24.67957 | 56.04385 | 14509 ft | 401 kts | 135° |
| 2026-05-07 02:49 | 24.65899 | 56.06472 | 14805 ft | 404 kts | 135° |
| 2026-05-07 02:49 | 24.63836 | 56.08576 | 15166 ft | 405 kts | 135° |
| 2026-05-07 02:49 | 24.61764 | 56.10698 | 15472 ft | 408 kts | 135° |
| 2026-05-07 02:50 | 24.59688 | 56.12834 | 15789 ft | 411 kts | 135° |
| 2026-05-07 02:50 | 24.57634 | 56.15026 | 16098 ft | 412 kts | 131° |
| 2026-05-07 02:50 | 24.55685 | 56.17354 | 16386 ft | 415 kts | 131° |
| 2026-05-07 02:50 | 24.53759 | 56.19738 | 16678 ft | 418 kts | 130° |
| 2026-05-07 02:51 | 24.51848 | 56.22154 | 17016 ft | 420 kts | 130° |
| 2026-05-07 02:51 | 24.49940 | 56.24591 | 17330 ft | 422 kts | 129° |
| 2026-05-07 02:51 | 24.48020 | 56.27054 | 17613 ft | 425 kts | 130° |
| 2026-05-07 02:51 | 24.46087 | 56.29525 | 17908 ft | 427 kts | 130° |
| 2026-05-07 02:52 | 24.44146 | 56.32001 | 18193 ft | 429 kts | 130° |
| 2026-05-07 02:52 | 24.42219 | 56.34455 | 18500 ft | 429 kts | 130° |
| 2026-05-07 02:52 | 24.40261 | 56.36945 | 18681 ft | 434 kts | 130° |
| 2026-05-07 02:52 | 24.38282 | 56.39459 | 18916 ft | 436 kts | 130° |
| 2026-05-07 02:53 | 24.36293 | 56.41983 | 19161 ft | 438 kts | 130° |
| 2026-05-07 02:53 | 24.34296 | 56.44517 | 19402 ft | 440 kts | 131° |
| 2026-05-07 02:53 | 24.32295 | 56.47053 | 19661 ft | 442 kts | 131° |
| 2026-05-07 02:53 | 24.30277 | 56.49609 | 19895 ft | 444 kts | 131° |
| 2026-05-07 02:54 | 24.28278 | 56.52217 | 20128 ft | 447 kts | 128° |
| 2026-05-07 02:54 | 24.26410 | 56.54943 | 20378 ft | 449 kts | 126° |
| 2026-05-07 02:54 | 24.24606 | 56.57739 | 20636 ft | 451 kts | 125° |
| 2026-05-07 02:54 | 24.22807 | 56.60571 | 20853 ft | 454 kts | 125° |
| 2026-05-07 02:55 | 24.20988 | 56.63414 | 21096 ft | 456 kts | 126° |
| 2026-05-07 02:55 | 24.19150 | 56.66250 | 21363 ft | 458 kts | 126° |
| 2026-05-07 02:55 | 24.17287 | 56.69090 | 21630 ft | 460 kts | 126° |
| 2026-05-07 02:55 | 24.15431 | 56.71895 | 21895 ft | 462 kts | 127° |
| 2026-05-07 02:56 | 24.13534 | 56.74745 | 22139 ft | 464 kts | 127° |
| 2026-05-07 02:56 | 24.11624 | 56.77607 | 22406 ft | 466 kts | 127° |
| 2026-05-07 02:56 | 24.09709 | 56.80475 | 22674 ft | 468 kts | 127° |
| 2026-05-07 02:56 | 24.07781 | 56.83362 | 22928 ft | 470 kts | 127° |
| 2026-05-07 02:57 | 24.05844 | 56.86262 | 23161 ft | 472 kts | 127° |
| 2026-05-07 02:57 | 24.03902 | 56.89170 | 23469 ft | 473 kts | 127° |
| 2026-05-07 02:57 | 24.01959 | 56.92084 | 23661 ft | 476 kts | 127° |
| 2026-05-07 02:57 | 24.00000 | 56.95014 | 23836 ft | 478 kts | 127° |
| 2026-05-07 02:58 | 23.98033 | 56.97950 | 24057 ft | 480 kts | 127° |
| 2026-05-07 02:58 | 23.96052 | 57.00903 | 24263 ft | 482 kts | 127° |
| 2026-05-07 02:58 | 23.94065 | 57.03864 | 24462 ft | 484 kts | 127° |
| 2026-05-07 02:58 | 23.92094 | 57.06801 | 24658 ft | 486 kts | 127° |
| 2026-05-07 02:59 | 23.90088 | 57.09789 | 24891 ft | 488 kts | 128° |
| 2026-05-07 02:59 | 23.88079 | 57.12785 | 25092 ft | 491 kts | 127° |
| 2026-05-07 02:59 | 23.86055 | 57.15803 | 25302 ft | 493 kts | 128° |
| 2026-05-07 02:59 | 23.84024 | 57.18826 | 25587 ft | 493 kts | 128° |
| 2026-05-07 03:00 | 23.81987 | 57.21852 | 25843 ft | 496 kts | 128° |
| 2026-05-07 03:00 | 23.79940 | 57.24893 | 26074 ft | 498 kts | 128° |
| 2026-05-07 03:00 | 23.77882 | 57.27948 | 26313 ft | 501 kts | 128° |
| 2026-05-07 03:00 | 23.75812 | 57.31020 | 26572 ft | 503 kts | 128° |
| 2026-05-07 03:01 | 23.73733 | 57.34103 | 26839 ft | 505 kts | 128° |
| 2026-05-07 03:01 | 23.71647 | 57.37196 | 27087 ft | 508 kts | 128° |
| 2026-05-07 03:01 | 23.69504 | 57.40273 | 27309 ft | 510 kts | 129° |
| 2026-05-07 03:01 | 23.67294 | 57.43314 | 27524 ft | 513 kts | 130° |
| 2026-05-07 03:02 | 23.65045 | 57.46355 | 27834 ft | 514 kts | 130° |
| 2026-05-07 03:02 | 23.62800 | 57.49384 | 28101 ft | 515 kts | 130° |
| 2026-05-07 03:02 | 23.60547 | 57.52437 | 28337 ft | 518 kts | 130° |
| 2026-05-07 03:02 | 23.58286 | 57.55514 | 28575 ft | 520 kts | 130° |
| 2026-05-07 03:03 | 23.56026 | 57.58603 | 28795 ft | 522 kts | 130° |
| 2026-05-07 03:03 | 23.53763 | 57.61703 | 29005 ft | 524 kts | 130° |
| 2026-05-07 03:03 | 23.51487 | 57.64823 | 29203 ft | 526 kts | 130° |
| 2026-05-07 03:03 | 23.49205 | 57.67951 | 29483 ft | 528 kts | 130° |
| 2026-05-07 03:04 | 23.46950 | 57.71040 | 29747 ft | 528 kts | 130° |
| 2026-05-07 03:04 | 23.44660 | 57.74165 | 30042 ft | 527 kts | 130° |
| 2026-05-07 03:04 | 23.42379 | 57.77276 | 30347 ft | 525 kts | 130° |
| 2026-05-07 03:04 | 23.40097 | 57.80385 | 30618 ft | 525 kts | 130° |
| 2026-05-07 03:05 | 23.37817 | 57.83491 | 30841 ft | 524 kts | 130° |
| 2026-05-07 03:05 | 23.35541 | 57.86592 | 31125 ft | 524 kts | 130° |
| 2026-05-07 03:05 | 23.33270 | 57.89684 | 31417 ft | 523 kts | 130° |
| 2026-05-07 03:05 | 23.31001 | 57.92772 | 31610 ft | 523 kts | 130° |
| 2026-05-07 03:06 | 23.28729 | 57.95861 | 31799 ft | 523 kts | 130° |
| 2026-05-07 03:06 | 23.26453 | 57.98957 | 32043 ft | 523 kts | 130° |
| 2026-05-07 03:06 | 23.24184 | 58.02042 | 32323 ft | 521 kts | 130° |
| 2026-05-07 03:06 | 23.22009 | 58.05189 | 32634 ft | 519 kts | 127° |
| 2026-05-07 03:07 | 23.19961 | 58.08420 | 32859 ft | 519 kts | 125° |
| 2026-05-07 03:07 | 23.17963 | 58.11689 | 33093 ft | 519 kts | 125° |
| 2026-05-07 03:07 | 23.15973 | 58.14963 | 33308 ft | 519 kts | 125° |
| 2026-05-07 03:07 | 23.13971 | 58.18226 | 33538 ft | 518 kts | 125° |
| 2026-05-07 03:08 | 23.11985 | 58.21425 | 33735 ft | 518 kts | 126° |
| 2026-05-07 03:08 | 23.09956 | 58.24659 | 33892 ft | 519 kts | 126° |
| 2026-05-07 03:08 | 23.07915 | 58.27889 | 34065 ft | 518 kts | 126° |
| 2026-05-07 03:08 | 23.05873 | 58.31110 | 34247 ft | 518 kts | 126° |
| 2026-05-07 03:09 | 23.03781 | 58.34286 | 34452 ft | 515 kts | 130° |
| 2026-05-07 03:09 | 23.01376 | 58.37144 | 34657 ft | 511 kts | 139° |
| 2026-05-07 03:09 | 22.98618 | 58.39554 | 34813 ft | 508 kts | 148° |
| 2026-05-07 03:09 | 22.95675 | 58.41682 | 34874 ft | 510 kts | 149° |
| 2026-05-07 03:10 | 22.89609 | 58.45735 | 34896 ft | 514 kts | 151° |
| 2026-05-07 03:10 | 22.83477 | 58.49728 | 34884 ft | 514 kts | 151° |
| 2026-05-07 03:11 | 22.77362 | 58.53739 | 34895 ft | 514 kts | 150° |
| 2026-05-07 03:11 | 22.71246 | 58.57776 | 34895 ft | 514 kts | 150° |
| 2026-05-07 03:12 | 22.65142 | 58.61814 | 34893 ft | 514 kts | 150° |
| 2026-05-07 03:12 | 22.59034 | 58.65851 | 34898 ft | 514 kts | 150° |
| 2026-05-07 03:13 | 22.52925 | 58.69876 | 34898 ft | 514 kts | 150° |
| 2026-05-07 03:13 | 22.46856 | 58.73872 | 34897 ft | 513 kts | 150° |
| 2026-05-07 03:14 | 22.40751 | 58.77889 | 34900 ft | 513 kts | 150° |
| 2026-05-07 03:15 | 22.31589 | 58.83910 | 34899 ft | 513 kts | 150° |
| 2026-05-07 03:15 | 22.25486 | 58.87916 | 34900 ft | 512 kts | 150° |
| 2026-05-07 03:16 | 22.19425 | 58.91892 | 34902 ft | 512 kts | 150° |
| 2026-05-07 03:16 | 22.13332 | 58.95882 | 34900 ft | 512 kts | 150° |
| 2026-05-07 03:17 | 22.07236 | 58.99870 | 34896 ft | 512 kts | 150° |
| 2026-05-07 03:17 | 22.01140 | 59.03854 | 34887 ft | 512 kts | 150° |
| 2026-05-07 03:18 | 21.95040 | 59.07838 | 34888 ft | 513 kts | 150° |
| 2026-05-07 03:18 | 21.88933 | 59.11822 | 34889 ft | 513 kts | 150° |
| 2026-05-07 03:19 | 21.82823 | 59.15804 | 34885 ft | 513 kts | 150° |
| 2026-05-07 03:19 | 21.76718 | 59.19779 | 34883 ft | 512 kts | 150° |
| 2026-05-07 03:20 | 21.70662 | 59.23717 | 34884 ft | 512 kts | 150° |
| 2026-05-07 03:20 | 21.64565 | 59.27679 | 34876 ft | 512 kts | 150° |
| 2026-05-07 03:21 | 21.58466 | 59.31641 | 34877 ft | 512 kts | 150° |
| 2026-05-07 03:21 | 21.52371 | 59.35597 | 34878 ft | 512 kts | 150° |
| 2026-05-07 03:22 | 21.46275 | 59.39547 | 34876 ft | 511 kts | 150° |
| 2026-05-07 03:22 | 21.40181 | 59.43492 | 34876 ft | 511 kts | 150° |
| 2026-05-07 03:23 | 21.34088 | 59.47434 | 34875 ft | 511 kts | 150° |
| 2026-05-07 03:23 | 21.27986 | 59.51378 | 34876 ft | 511 kts | 150° |
| 2026-05-07 03:24 | 21.21897 | 59.55316 | 34874 ft | 511 kts | 150° |
| 2026-05-07 03:24 | 21.15809 | 59.59241 | 34876 ft | 511 kts | 150° |
| 2026-05-07 03:25 | 21.09754 | 59.63136 | 34876 ft | 512 kts | 150° |
| 2026-05-07 03:25 | 21.03642 | 59.67069 | 34875 ft | 511 kts | 150° |
| 2026-05-07 03:26 | 20.97548 | 59.70987 | 34876 ft | 510 kts | 150° |
| 2026-05-07 03:26 | 20.92491 | 59.74234 | 34875 ft | 511 kts | 150° |
| 2026-05-07 03:27 | 20.85364 | 59.78804 | 34878 ft | 511 kts | 151° |
| 2026-05-07 03:27 | 20.80289 | 59.82054 | 34879 ft | 512 kts | 151° |
| 2026-05-07 03:28 | 20.74185 | 59.85961 | 34878 ft | 511 kts | 150° |
| 2026-05-07 03:28 | 20.68096 | 59.89856 | 34880 ft | 510 kts | 151° |
| 2026-05-07 03:29 | 20.61015 | 59.94380 | 34880 ft | 510 kts | 150° |
| 2026-05-07 03:29 | 20.55913 | 59.97637 | 34879 ft | 510 kts | 150° |
| 2026-05-07 03:30 | 20.49827 | 60.01516 | 34880 ft | 509 kts | 150° |
| 2026-05-07 03:30 | 20.43754 | 60.05385 | 34882 ft | 509 kts | 150° |
| 2026-05-07 03:31 | 20.37712 | 60.09231 | 34878 ft | 509 kts | 151° |
| 2026-05-07 03:31 | 20.31624 | 60.13104 | 34878 ft | 509 kts | 150° |
| 2026-05-07 03:32 | 20.25552 | 60.16960 | 34878 ft | 507 kts | 150° |
| 2026-05-07 03:32 | 20.19491 | 60.20808 | 34878 ft | 506 kts | 150° |
| 2026-05-07 03:33 | 20.13436 | 60.24650 | 34880 ft | 507 kts | 150° |
| 2026-05-07 03:33 | 20.07374 | 60.28495 | 34883 ft | 508 kts | 149° |
| 2026-05-07 03:34 | 20.01773 | 60.33068 | 34885 ft | 508 kts | 140° |
| 2026-05-07 03:34 | 19.96475 | 60.38035 | 34884 ft | 507 kts | 139° |
| 2026-05-07 03:35 | 19.91268 | 60.43022 | 34885 ft | 507 kts | 139° |
| 2026-05-07 03:35 | 19.86023 | 60.48035 | 34886 ft | 507 kts | 139° |
| 2026-05-07 03:36 | 19.80754 | 60.53044 | 34888 ft | 509 kts | 139° |
| 2026-05-07 03:36 | 19.75467 | 60.58057 | 34886 ft | 507 kts | 139° |
| 2026-05-07 03:37 | 19.70206 | 60.63039 | 34887 ft | 506 kts | 139° |
| 2026-05-07 03:37 | 19.64953 | 60.68011 | 34889 ft | 506 kts | 139° |
| 2026-05-07 03:38 | 19.59699 | 60.72979 | 34889 ft | 506 kts | 139° |
| 2026-05-07 03:38 | 19.54472 | 60.77917 | 34893 ft | 506 kts | 139° |
| 2026-05-07 03:39 | 19.49198 | 60.82896 | 34890 ft | 508 kts | 139° |
| 2026-05-07 03:39 | 19.43918 | 60.87875 | 34889 ft | 508 kts | 139° |
| 2026-05-07 03:40 | 19.38637 | 60.92850 | 34892 ft | 507 kts | 139° |
| 2026-05-07 03:40 | 19.33360 | 60.97818 | 34892 ft | 507 kts | 139° |
| 2026-05-07 03:41 | 19.28076 | 61.02786 | 34892 ft | 508 kts | 139° |
| 2026-05-07 03:41 | 19.22802 | 61.07742 | 34892 ft | 506 kts | 139° |
| 2026-05-07 03:42 | 19.17576 | 61.12650 | 34890 ft | 497 kts | 139° |
| 2026-05-07 03:42 | 19.12454 | 61.17455 | 34892 ft | 488 kts | 139° |
| 2026-05-07 03:43 | 19.07424 | 61.22169 | 34894 ft | 479 kts | 139° |